sensor_id;sensor_type;location;lat;lon;timestamp;P1;durP1;ratioP1;P2;durP2;ratioP2
9860;SDS011;4969;52.304;4.968;2023-05-15T00:01:50;34.97;;;28.03;;
9860;SDS011;4969;52.304;4.968;2023-05-15T00:04:17;36.13;;;28.77;;
9860;SDS011;4969;52.304;4.968;2023-05-15T00:06:43;33.47;;;27.63;;
9860;SDS011;4969;52.304;4.968;2023-05-15T00:09:11;27.20;;;24.33;;
9860;SDS011;4969;52.304;4.968;2023-05-15T00:11:38;30.80;;;26.17;;
9860;SDS011;4969;52.304;4.968;2023-05-15T00:14:04;36.67;;;29.37;;
9860;SDS011;4969;52.304;4.968;2023-05-15T00:16:31;29.93;;;26.60;;
9860;SDS011;4969;52.304;4.968;2023-05-15T00:18:58;31.77;;;26.33;;
9860;SDS011;4969;52.304;4.968;2023-05-15T00:21:24;35.23;;;27.97;;
9860;SDS011;4969;52.304;4.968;2023-05-15T00:23:51;35.73;;;27.70;;
9860;SDS011;4969;52.304;4.968;2023-05-15T00:26:21;36.37;;;27.33;;
9860;SDS011;4969;52.304;4.968;2023-05-15T00:28:49;30.03;;;26.20;;
9860;SDS011;4969;52.304;4.968;2023-05-15T00:31:15;34.67;;;27.93;;
9860;SDS011;4969;52.304;4.968;2023-05-15T00:33:42;31.03;;;26.87;;
9860;SDS011;4969;52.304;4.968;2023-05-15T00:36:09;29.03;;;25.93;;
9860;SDS011;4969;52.304;4.968;2023-05-15T00:38:35;30.93;;;25.40;;
9860;SDS011;4969;52.304;4.968;2023-05-15T00:41:02;36.27;;;26.70;;
9860;SDS011;4969;52.304;4.968;2023-05-15T00:43:32;29.33;;;26.23;;
9860;SDS011;4969;52.304;4.968;2023-05-15T00:46:01;34.20;;;26.80;;
9860;SDS011;4969;52.304;4.968;2023-05-15T00:48:29;31.57;;;25.17;;
9860;SDS011;4969;52.304;4.968;2023-05-15T00:50:58;31.50;;;27.20;;
9860;SDS011;4969;52.304;4.968;2023-05-15T00:53:25;28.37;;;25.13;;
9860;SDS011;4969;52.304;4.968;2023-05-15T00:55:53;36.97;;;29.20;;
9860;SDS011;4969;52.304;4.968;2023-05-15T00:58:22;34.00;;;30.27;;
9860;SDS011;4969;52.304;4.968;2023-05-15T01:00:51;34.37;;;28.43;;
9860;SDS011;4969;52.304;4.968;2023-05-15T01:03:18;33.53;;;29.77;;
9860;SDS011;4969;52.304;4.968;2023-05-15T01:05:45;33.17;;;29.33;;
9860;SDS011;4969;52.304;4.968;2023-05-15T01:08:15;35.67;;;31.10;;
9860;SDS011;4969;52.304;4.968;2023-05-15T01:10:45;39.30;;;32.93;;
9860;SDS011;4969;52.304;4.968;2023-05-15T01:13:13;37.90;;;33.73;;
9860;SDS011;4969;52.304;4.968;2023-05-15T01:15:41;35.63;;;30.77;;
9860;SDS011;4969;52.304;4.968;2023-05-15T01:18:10;34.13;;;30.57;;
9860;SDS011;4969;52.304;4.968;2023-05-15T01:20:39;37.87;;;30.90;;
9860;SDS011;4969;52.304;4.968;2023-05-15T01:23:16;39.90;;;31.87;;
9860;SDS011;4969;52.304;4.968;2023-05-15T01:25:56;39.17;;;33.60;;
9860;SDS011;4969;52.304;4.968;2023-05-15T01:28:44;38.93;;;30.97;;
9860;SDS011;4969;52.304;4.968;2023-05-15T01:31:20;38.87;;;31.13;;
9860;SDS011;4969;52.304;4.968;2023-05-15T01:33:50;39.33;;;30.17;;
9860;SDS011;4969;52.304;4.968;2023-05-15T01:36:23;34.03;;;29.43;;
9860;SDS011;4969;52.304;4.968;2023-05-15T01:38:55;36.43;;;29.97;;
9860;SDS011;4969;52.304;4.968;2023-05-15T01:41:25;32.83;;;28.90;;
9860;SDS011;4969;52.304;4.968;2023-05-15T01:43:58;35.23;;;30.53;;
9860;SDS011;4969;52.304;4.968;2023-05-15T01:46:28;37.03;;;31.20;;
9860;SDS011;4969;52.304;4.968;2023-05-15T01:48:57;33.77;;;28.67;;
9860;SDS011;4969;52.304;4.968;2023-05-15T01:51:26;35.17;;;29.40;;
9860;SDS011;4969;52.304;4.968;2023-05-15T01:53:53;39.63;;;31.53;;
9860;SDS011;4969;52.304;4.968;2023-05-15T01:56:22;42.03;;;33.53;;
9860;SDS011;4969;52.304;4.968;2023-05-15T01:58:50;29.50;;;25.07;;
9860;SDS011;4969;52.304;4.968;2023-05-15T02:01:20;40.03;;;31.30;;
9860;SDS011;4969;52.304;4.968;2023-05-15T02:03:48;42.30;;;32.03;;
9860;SDS011;4969;52.304;4.968;2023-05-15T02:06:15;40.63;;;31.43;;
9860;SDS011;4969;52.304;4.968;2023-05-15T02:08:42;39.40;;;33.30;;
9860;SDS011;4969;52.304;4.968;2023-05-15T02:11:09;39.10;;;32.33;;
9860;SDS011;4969;52.304;4.968;2023-05-15T02:13:37;40.37;;;31.77;;
9860;SDS011;4969;52.304;4.968;2023-05-15T02:16:05;56.60;;;38.23;;
9860;SDS011;4969;52.304;4.968;2023-05-15T02:18:33;41.90;;;34.70;;
9860;SDS011;4969;52.304;4.968;2023-05-15T02:21:01;45.30;;;35.87;;
9860;SDS011;4969;52.304;4.968;2023-05-15T02:23:28;50.37;;;35.70;;
9860;SDS011;4969;52.304;4.968;2023-05-15T02:26:00;42.40;;;35.87;;
9860;SDS011;4969;52.304;4.968;2023-05-15T02:28:37;48.73;;;36.30;;
9860;SDS011;4969;52.304;4.968;2023-05-15T02:31:10;47.97;;;38.00;;
9860;SDS011;4969;52.304;4.968;2023-05-15T02:33:47;48.40;;;37.67;;
9860;SDS011;4969;52.304;4.968;2023-05-15T02:36:21;48.80;;;36.30;;
9860;SDS011;4969;52.304;4.968;2023-05-15T02:38:53;48.07;;;36.67;;
9860;SDS011;4969;52.304;4.968;2023-05-15T02:41:21;53.03;;;39.00;;
9860;SDS011;4969;52.304;4.968;2023-05-15T02:43:49;50.87;;;38.40;;
9860;SDS011;4969;52.304;4.968;2023-05-15T02:46:16;49.10;;;38.77;;
9860;SDS011;4969;52.304;4.968;2023-05-15T02:48:45;56.97;;;40.93;;
9860;SDS011;4969;52.304;4.968;2023-05-15T02:51:13;58.30;;;45.87;;
9860;SDS011;4969;52.304;4.968;2023-05-15T02:53:40;69.17;;;45.07;;
9860;SDS011;4969;52.304;4.968;2023-05-15T02:56:07;71.30;;;51.33;;
9860;SDS011;4969;52.304;4.968;2023-05-15T02:58:34;54.60;;;41.57;;
9860;SDS011;4969;52.304;4.968;2023-05-15T03:01:01;67.30;;;48.50;;
9860;SDS011;4969;52.304;4.968;2023-05-15T03:03:28;66.60;;;48.20;;
9860;SDS011;4969;52.304;4.968;2023-05-15T03:05:56;64.37;;;46.83;;
9860;SDS011;4969;52.304;4.968;2023-05-15T03:08:24;65.80;;;48.33;;
9860;SDS011;4969;52.304;4.968;2023-05-15T03:10:51;66.20;;;47.13;;
9860;SDS011;4969;52.304;4.968;2023-05-15T03:13:17;63.57;;;47.40;;
9860;SDS011;4969;52.304;4.968;2023-05-15T03:15:44;61.10;;;45.57;;
9860;SDS011;4969;52.304;4.968;2023-05-15T03:18:11;57.40;;;46.37;;
9860;SDS011;4969;52.304;4.968;2023-05-15T03:20:37;60.40;;;48.00;;
9860;SDS011;4969;52.304;4.968;2023-05-15T03:23:05;63.17;;;45.67;;
9860;SDS011;4969;52.304;4.968;2023-05-15T03:25:31;55.97;;;45.57;;
9860;SDS011;4969;52.304;4.968;2023-05-15T03:27:58;59.00;;;45.17;;
9860;SDS011;4969;52.304;4.968;2023-05-15T03:30:25;56.20;;;44.97;;
9860;SDS011;4969;52.304;4.968;2023-05-15T03:32:51;63.97;;;47.10;;
9860;SDS011;4969;52.304;4.968;2023-05-15T03:35:18;59.37;;;44.67;;
9860;SDS011;4969;52.304;4.968;2023-05-15T03:37:44;58.60;;;45.20;;
9860;SDS011;4969;52.304;4.968;2023-05-15T03:40:12;56.80;;;46.13;;
9860;SDS011;4969;52.304;4.968;2023-05-15T03:42:39;62.93;;;44.10;;
9860;SDS011;4969;52.304;4.968;2023-05-15T03:45:06;61.03;;;43.57;;
9860;SDS011;4969;52.304;4.968;2023-05-15T03:47:34;59.20;;;44.60;;
9860;SDS011;4969;52.304;4.968;2023-05-15T03:50:00;55.57;;;44.37;;
9860;SDS011;4969;52.304;4.968;2023-05-15T03:52:27;60.10;;;46.27;;
9860;SDS011;4969;52.304;4.968;2023-05-15T03:54:54;54.20;;;45.53;;
9860;SDS011;4969;52.304;4.968;2023-05-15T03:57:22;60.63;;;48.97;;
9860;SDS011;4969;52.304;4.968;2023-05-15T03:59:48;53.77;;;45.30;;
9860;SDS011;4969;52.304;4.968;2023-05-15T04:02:15;58.87;;;46.93;;
9860;SDS011;4969;52.304;4.968;2023-05-15T04:04:41;57.93;;;46.07;;
9860;SDS011;4969;52.304;4.968;2023-05-15T04:07:09;58.20;;;45.67;;
9860;SDS011;4969;52.304;4.968;2023-05-15T04:09:35;58.60;;;45.73;;
9860;SDS011;4969;52.304;4.968;2023-05-15T04:12:03;50.07;;;40.20;;
9860;SDS011;4969;52.304;4.968;2023-05-15T04:14:31;43.33;;;36.27;;
9860;SDS011;4969;52.304;4.968;2023-05-15T04:16:57;38.97;;;33.07;;
9860;SDS011;4969;52.304;4.968;2023-05-15T04:19:24;37.10;;;30.53;;
9860;SDS011;4969;52.304;4.968;2023-05-15T04:21:51;31.60;;;27.40;;
9860;SDS011;4969;52.304;4.968;2023-05-15T04:24:17;31.63;;;25.50;;
9860;SDS011;4969;52.304;4.968;2023-05-15T04:26:44;30.90;;;27.70;;
9860;SDS011;4969;52.304;4.968;2023-05-15T04:29:10;33.23;;;28.63;;
9860;SDS011;4969;52.304;4.968;2023-05-15T04:31:38;29.83;;;26.83;;
9860;SDS011;4969;52.304;4.968;2023-05-15T04:34:05;29.43;;;26.57;;
9860;SDS011;4969;52.304;4.968;2023-05-15T04:36:31;34.67;;;28.37;;
9860;SDS011;4969;52.304;4.968;2023-05-15T04:38:58;31.90;;;28.77;;
9860;SDS011;4969;52.304;4.968;2023-05-15T04:41:25;31.63;;;28.27;;
9860;SDS011;4969;52.304;4.968;2023-05-15T04:43:52;34.57;;;30.90;;
9860;SDS011;4969;52.304;4.968;2023-05-15T04:46:18;33.17;;;29.67;;
9860;SDS011;4969;52.304;4.968;2023-05-15T04:48:46;31.37;;;28.07;;
9860;SDS011;4969;52.304;4.968;2023-05-15T04:51:13;34.60;;;31.00;;
9860;SDS011;4969;52.304;4.968;2023-05-15T04:53:39;34.13;;;30.80;;
9860;SDS011;4969;52.304;4.968;2023-05-15T04:56:06;31.87;;;28.50;;
9860;SDS011;4969;52.304;4.968;2023-05-15T04:58:32;34.63;;;31.07;;
9860;SDS011;4969;52.304;4.968;2023-05-15T05:00:59;31.93;;;28.90;;
9860;SDS011;4969;52.304;4.968;2023-05-15T05:03:26;35.93;;;32.17;;
9860;SDS011;4969;52.304;4.968;2023-05-15T05:05:54;33.90;;;30.50;;
9860;SDS011;4969;52.304;4.968;2023-05-15T05:08:21;34.03;;;30.43;;
9860;SDS011;4969;52.304;4.968;2023-05-15T05:10:47;34.90;;;31.13;;
9860;SDS011;4969;52.304;4.968;2023-05-15T05:13:14;34.50;;;31.07;;
9860;SDS011;4969;52.304;4.968;2023-05-15T05:15:40;35.60;;;31.80;;
9860;SDS011;4969;52.304;4.968;2023-05-15T05:18:07;36.03;;;32.60;;
9860;SDS011;4969;52.304;4.968;2023-05-15T05:20:34;36.37;;;32.77;;
9860;SDS011;4969;52.304;4.968;2023-05-15T05:23:01;37.40;;;33.70;;
9860;SDS011;4969;52.304;4.968;2023-05-15T05:25:28;35.93;;;32.40;;
9860;SDS011;4969;52.304;4.968;2023-05-15T05:27:55;39.97;;;36.03;;
9860;SDS011;4969;52.304;4.968;2023-05-15T05:30:21;35.87;;;32.37;;
9860;SDS011;4969;52.304;4.968;2023-05-15T05:32:48;38.80;;;34.83;;
9860;SDS011;4969;52.304;4.968;2023-05-15T05:35:14;37.93;;;34.23;;
9860;SDS011;4969;52.304;4.968;2023-05-15T05:37:41;38.27;;;34.43;;
9860;SDS011;4969;52.304;4.968;2023-05-15T05:40:09;37.97;;;34.17;;
9860;SDS011;4969;52.304;4.968;2023-05-15T05:42:36;35.73;;;32.07;;
9860;SDS011;4969;52.304;4.968;2023-05-15T05:45:03;38.93;;;35.17;;
9860;SDS011;4969;52.304;4.968;2023-05-15T05:47:31;40.00;;;36.30;;
9860;SDS011;4969;52.304;4.968;2023-05-15T05:49:57;38.27;;;34.57;;
9860;SDS011;4969;52.304;4.968;2023-05-15T05:52:24;39.43;;;35.70;;
9860;SDS011;4969;52.304;4.968;2023-05-15T05:54:50;39.33;;;35.23;;
9860;SDS011;4969;52.304;4.968;2023-05-15T05:57:18;38.60;;;34.87;;
9860;SDS011;4969;52.304;4.968;2023-05-15T05:59:45;38.67;;;34.77;;
9860;SDS011;4969;52.304;4.968;2023-05-15T06:02:11;40.13;;;35.90;;
9860;SDS011;4969;52.304;4.968;2023-05-15T06:04:38;38.87;;;34.97;;
9860;SDS011;4969;52.304;4.968;2023-05-15T06:07:05;39.13;;;35.23;;
9860;SDS011;4969;52.304;4.968;2023-05-15T06:09:32;40.10;;;36.20;;
9860;SDS011;4969;52.304;4.968;2023-05-15T06:11:59;38.23;;;34.40;;
9860;SDS011;4969;52.304;4.968;2023-05-15T06:14:29;39.07;;;35.17;;
9860;SDS011;4969;52.304;4.968;2023-05-15T06:16:56;40.20;;;36.10;;
9860;SDS011;4969;52.304;4.968;2023-05-15T06:19:23;38.60;;;34.63;;
9860;SDS011;4969;52.304;4.968;2023-05-15T06:21:49;37.97;;;33.83;;
9860;SDS011;4969;52.304;4.968;2023-05-15T06:24:16;40.30;;;36.47;;
9860;SDS011;4969;52.304;4.968;2023-05-15T06:26:42;38.03;;;34.23;;
9860;SDS011;4969;52.304;4.968;2023-05-15T06:29:09;40.23;;;36.10;;
9860;SDS011;4969;52.304;4.968;2023-05-15T06:31:37;38.63;;;34.63;;
9860;SDS011;4969;52.304;4.968;2023-05-15T06:34:03;38.60;;;34.50;;
9860;SDS011;4969;52.304;4.968;2023-05-15T06:36:30;31.27;;;27.97;;
9860;SDS011;4969;52.304;4.968;2023-05-15T06:38:57;37.93;;;34.00;;
9860;SDS011;4969;52.304;4.968;2023-05-15T06:41:23;36.53;;;32.90;;
9860;SDS011;4969;52.304;4.968;2023-05-15T06:43:50;30.60;;;27.67;;
9860;SDS011;4969;52.304;4.968;2023-05-15T06:46:16;33.03;;;29.70;;
9860;SDS011;4969;52.304;4.968;2023-05-15T06:48:45;36.65;;;32.90;;
9860;SDS011;4969;52.304;4.968;2023-05-15T06:51:12;34.67;;;31.35;;
9860;SDS011;4969;52.304;4.968;2023-05-15T06:53:39;36.70;;;33.00;;
9860;SDS011;4969;52.304;4.968;2023-05-15T06:56:06;28.50;;;25.65;;
9860;SDS011;4969;52.304;4.968;2023-05-15T06:58:32;33.17;;;30.13;;
9860;SDS011;4969;52.304;4.968;2023-05-15T07:00:59;26.08;;;23.58;;
9860;SDS011;4969;52.304;4.968;2023-05-15T07:03:27;32.63;;;29.45;;
9860;SDS011;4969;52.304;4.968;2023-05-15T07:05:55;32.65;;;29.30;;
9860;SDS011;4969;52.304;4.968;2023-05-15T07:08:22;32.40;;;29.15;;
9860;SDS011;4969;52.304;4.968;2023-05-15T07:10:48;30.40;;;27.20;;
9860;SDS011;4969;52.304;4.968;2023-05-15T07:13:15;29.30;;;26.30;;
9860;SDS011;4969;52.304;4.968;2023-05-15T07:15:42;29.30;;;26.30;;
9860;SDS011;4969;52.304;4.968;2023-05-15T07:18:08;28.95;;;26.15;;
9860;SDS011;4969;52.304;4.968;2023-05-15T07:20:35;29.15;;;26.42;;
9860;SDS011;4969;52.304;4.968;2023-05-15T07:23:03;28.80;;;26.08;;
9860;SDS011;4969;52.304;4.968;2023-05-15T07:25:30;27.55;;;24.95;;
9860;SDS011;4969;52.304;4.968;2023-05-15T07:27:56;27.20;;;24.40;;
9860;SDS011;4969;52.304;4.968;2023-05-15T07:30:23;29.15;;;26.13;;
9860;SDS011;4969;52.304;4.968;2023-05-15T07:32:50;29.52;;;26.60;;
9860;SDS011;4969;52.304;4.968;2023-05-15T07:35:17;23.23;;;20.92;;
9860;SDS011;4969;52.304;4.968;2023-05-15T07:37:43;28.05;;;25.45;;
9860;SDS011;4969;52.304;4.968;2023-05-15T07:40:11;28.77;;;26.05;;
9860;SDS011;4969;52.304;4.968;2023-05-15T07:42:39;27.35;;;24.55;;
9860;SDS011;4969;52.304;4.968;2023-05-15T07:45:07;28.83;;;25.92;;
9860;SDS011;4969;52.304;4.968;2023-05-15T07:47:34;26.23;;;23.75;;
9860;SDS011;4969;52.304;4.968;2023-05-15T07:50:01;28.73;;;26.02;;
9860;SDS011;4969;52.304;4.968;2023-05-15T07:52:28;29.42;;;26.58;;
9860;SDS011;4969;52.304;4.968;2023-05-15T07:54:54;32.60;;;29.40;;
9860;SDS011;4969;52.304;4.968;2023-05-15T07:57:22;34.15;;;30.73;;
9860;SDS011;4969;52.304;4.968;2023-05-15T07:59:50;32.67;;;29.27;;
9860;SDS011;4969;52.304;4.968;2023-05-15T08:02:16;34.78;;;31.27;;
9860;SDS011;4969;52.304;4.968;2023-05-15T08:04:43;35.38;;;31.58;;
9860;SDS011;4969;52.304;4.968;2023-05-15T08:07:10;32.20;;;28.85;;
9860;SDS011;4969;52.304;4.968;2023-05-15T08:09:38;38.80;;;34.70;;
9860;SDS011;4969;52.304;4.968;2023-05-15T08:12:14;35.08;;;31.52;;
9860;SDS011;4969;52.304;4.968;2023-05-15T08:14:47;41.70;;;35.53;;
9860;SDS011;4969;52.304;4.968;2023-05-15T08:17:14;40.40;;;35.55;;
9860;SDS011;4969;52.304;4.968;2023-05-15T08:19:40;42.90;;;36.63;;
9860;SDS011;4969;52.304;4.968;2023-05-15T08:22:07;44.85;;;38.25;;
9860;SDS011;4969;52.304;4.968;2023-05-15T08:24:34;42.90;;;38.28;;
9860;SDS011;4969;52.304;4.968;2023-05-15T08:27:00;46.83;;;39.50;;
9860;SDS011;4969;52.304;4.968;2023-05-15T08:29:27;43.85;;;37.50;;
9860;SDS011;4969;52.304;4.968;2023-05-15T08:31:55;46.50;;;41.38;;
9860;SDS011;4969;52.304;4.968;2023-05-15T08:34:22;45.67;;;39.22;;
9860;SDS011;4969;52.304;4.968;2023-05-15T08:36:48;43.25;;;38.25;;
9860;SDS011;4969;52.304;4.968;2023-05-15T08:39:16;46.72;;;40.67;;
9860;SDS011;4969;52.304;4.968;2023-05-15T08:41:45;43.00;;;38.30;;
9860;SDS011;4969;52.304;4.968;2023-05-15T08:44:16;53.42;;;40.85;;
9860;SDS011;4969;52.304;4.968;2023-05-15T08:46:42;45.60;;;39.03;;
9860;SDS011;4969;52.304;4.968;2023-05-15T08:49:13;41.33;;;35.53;;
9860;SDS011;4969;52.304;4.968;2023-05-15T08:51:43;44.95;;;40.15;;
9860;SDS011;4969;52.304;4.968;2023-05-15T08:54:12;42.08;;;37.13;;
9860;SDS011;4969;52.304;4.968;2023-05-15T08:56:39;43.17;;;38.30;;
9860;SDS011;4969;52.304;4.968;2023-05-15T08:59:07;37.60;;;31.42;;
9860;SDS011;4969;52.304;4.968;2023-05-15T09:01:33;39.90;;;35.05;;
9860;SDS011;4969;52.304;4.968;2023-05-15T09:04:01;38.55;;;34.10;;
9860;SDS011;4969;52.304;4.968;2023-05-15T09:06:29;37.30;;;33.30;;
9860;SDS011;4969;52.304;4.968;2023-05-15T09:08:57;36.08;;;32.17;;
9860;SDS011;4969;52.304;4.968;2023-05-15T09:11:25;36.22;;;32.33;;
9860;SDS011;4969;52.304;4.968;2023-05-15T09:13:56;33.75;;;29.90;;
9860;SDS011;4969;52.304;4.968;2023-05-15T09:16:23;31.98;;;28.20;;
9860;SDS011;4969;52.304;4.968;2023-05-15T09:18:50;32.75;;;29.20;;
9860;SDS011;4969;52.304;4.968;2023-05-15T09:21:20;34.42;;;28.83;;
9860;SDS011;4969;52.304;4.968;2023-05-15T09:23:50;33.30;;;28.67;;
9860;SDS011;4969;52.304;4.968;2023-05-15T09:26:17;28.38;;;25.38;;
9860;SDS011;4969;52.304;4.968;2023-05-15T09:28:43;28.13;;;25.20;;
9860;SDS011;4969;52.304;4.968;2023-05-15T09:31:11;31.75;;;27.08;;
9860;SDS011;4969;52.304;4.968;2023-05-15T09:33:38;31.88;;;26.92;;
9860;SDS011;4969;52.304;4.968;2023-05-15T09:36:07;32.13;;;28.05;;
9860;SDS011;4969;52.304;4.968;2023-05-15T09:38:35;35.08;;;27.88;;
9860;SDS011;4969;52.304;4.968;2023-05-15T09:41:07;29.38;;;25.98;;
9860;SDS011;4969;52.304;4.968;2023-05-15T09:43:36;29.38;;;26.25;;
9860;SDS011;4969;52.304;4.968;2023-05-15T09:46:04;30.30;;;26.55;;
9860;SDS011;4969;52.304;4.968;2023-05-15T09:48:33;26.38;;;23.13;;
9860;SDS011;4969;52.304;4.968;2023-05-15T09:51:00;23.20;;;20.77;;
9860;SDS011;4969;52.304;4.968;2023-05-15T09:53:29;26.45;;;23.73;;
9860;SDS011;4969;52.304;4.968;2023-05-15T09:55:57;24.40;;;21.95;;
9860;SDS011;4969;52.304;4.968;2023-05-15T09:58:25;26.55;;;23.67;;
9860;SDS011;4969;52.304;4.968;2023-05-15T10:00:51;25.85;;;23.13;;
9860;SDS011;4969;52.304;4.968;2023-05-15T10:03:18;25.40;;;22.75;;
9860;SDS011;4969;52.304;4.968;2023-05-15T10:05:45;25.00;;;22.60;;
9860;SDS011;4969;52.304;4.968;2023-05-15T10:08:11;26.40;;;23.75;;
9860;SDS011;4969;52.304;4.968;2023-05-15T10:10:40;26.60;;;23.30;;
9860;SDS011;4969;52.304;4.968;2023-05-15T10:13:07;26.10;;;23.58;;
9860;SDS011;4969;52.304;4.968;2023-05-15T10:15:36;24.05;;;21.75;;
9860;SDS011;4969;52.304;4.968;2023-05-15T10:18:04;23.48;;;21.17;;
9860;SDS011;4969;52.304;4.968;2023-05-15T10:20:32;25.17;;;22.85;;
9860;SDS011;4969;52.304;4.968;2023-05-15T10:23:00;26.75;;;22.80;;
9860;SDS011;4969;52.304;4.968;2023-05-15T10:25:32;23.95;;;21.73;;
9860;SDS011;4969;52.304;4.968;2023-05-15T10:28:01;23.17;;;21.02;;
9860;SDS011;4969;52.304;4.968;2023-05-15T10:30:28;23.60;;;21.30;;
9860;SDS011;4969;52.304;4.968;2023-05-15T10:32:58;24.05;;;21.52;;
9860;SDS011;4969;52.304;4.968;2023-05-15T10:35:26;23.70;;;21.40;;
9860;SDS011;4969;52.304;4.968;2023-05-15T10:37:53;22.83;;;20.75;;
9860;SDS011;4969;52.304;4.968;2023-05-15T10:40:20;23.25;;;21.10;;
9860;SDS011;4969;52.304;4.968;2023-05-15T10:42:47;21.85;;;19.83;;
9860;SDS011;4969;52.304;4.968;2023-05-15T10:45:13;22.23;;;20.20;;
9860;SDS011;4969;52.304;4.968;2023-05-15T10:47:41;22.40;;;20.42;;
9860;SDS011;4969;52.304;4.968;2023-05-15T10:50:10;21.30;;;19.42;;
9860;SDS011;4969;52.304;4.968;2023-05-15T10:52:38;22.20;;;20.30;;
9860;SDS011;4969;52.304;4.968;2023-05-15T10:55:06;22.60;;;20.40;;
9860;SDS011;4969;52.304;4.968;2023-05-15T10:57:34;23.98;;;21.58;;
9860;SDS011;4969;52.304;4.968;2023-05-15T11:00:01;21.17;;;19.10;;
9860;SDS011;4969;52.304;4.968;2023-05-15T11:02:49;19.67;;;17.73;;
9860;SDS011;4969;52.304;4.968;2023-05-15T11:05:19;18.85;;;17.10;;
9860;SDS011;4969;52.304;4.968;2023-05-15T11:07:51;18.60;;;17.02;;
9860;SDS011;4969;52.304;4.968;2023-05-15T11:10:52;17.63;;;16.02;;
9860;SDS011;4969;52.304;4.968;2023-05-15T11:13:19;17.90;;;16.23;;
9860;SDS011;4969;52.304;4.968;2023-05-15T11:15:46;16.83;;;15.30;;
9860;SDS011;4969;52.304;4.968;2023-05-15T11:18:14;16.08;;;14.57;;
9860;SDS011;4969;52.304;4.968;2023-05-15T11:21:04;16.80;;;15.10;;
9860;SDS011;4969;52.304;4.968;2023-05-15T11:23:37;17.85;;;16.30;;
9860;SDS011;4969;52.304;4.968;2023-05-15T11:26:05;17.50;;;15.85;;
9860;SDS011;4969;52.304;4.968;2023-05-15T11:28:34;16.42;;;14.88;;
9860;SDS011;4969;52.304;4.968;2023-05-15T11:31:06;16.63;;;15.10;;
9860;SDS011;4969;52.304;4.968;2023-05-15T11:33:33;16.17;;;14.55;;
9860;SDS011;4969;52.304;4.968;2023-05-15T11:36:03;16.85;;;15.10;;
9860;SDS011;4969;52.304;4.968;2023-05-15T11:38:35;15.63;;;14.32;;
9860;SDS011;4969;52.304;4.968;2023-05-15T11:41:11;16.60;;;14.90;;
9860;SDS011;4969;52.304;4.968;2023-05-15T11:43:42;17.38;;;15.68;;
9860;SDS011;4969;52.304;4.968;2023-05-15T11:46:09;16.15;;;14.30;;
9860;SDS011;4969;52.304;4.968;2023-05-15T11:48:38;18.73;;;16.60;;
9860;SDS011;4969;52.304;4.968;2023-05-15T11:51:10;16.67;;;15.02;;
9860;SDS011;4969;52.304;4.968;2023-05-15T11:53:42;15.70;;;14.15;;
9860;SDS011;4969;52.304;4.968;2023-05-15T11:56:11;15.43;;;11.77;;
9860;SDS011;4969;52.304;4.968;2023-05-15T11:58:38;11.13;;;10.13;;
9860;SDS011;4969;52.304;4.968;2023-05-15T12:01:08;12.18;;;10.90;;
9860;SDS011;4969;52.304;4.968;2023-05-15T12:03:35;14.07;;;11.93;;
9860;SDS011;4969;52.304;4.968;2023-05-15T12:06:02;13.13;;;11.68;;
9860;SDS011;4969;52.304;4.968;2023-05-15T12:08:29;13.07;;;11.02;;
9860;SDS011;4969;52.304;4.968;2023-05-15T12:10:59;12.02;;;10.88;;
9860;SDS011;4969;52.304;4.968;2023-05-15T12:13:27;17.13;;;11.90;;
9860;SDS011;4969;52.304;4.968;2023-05-15T12:15:54;15.45;;;12.35;;
9860;SDS011;4969;52.304;4.968;2023-05-15T12:18:21;16.10;;;14.68;;
9860;SDS011;4969;52.304;4.968;2023-05-15T12:20:50;17.20;;;15.10;;
9860;SDS011;4969;52.304;4.968;2023-05-15T12:23:19;17.83;;;15.02;;
9860;SDS011;4969;52.304;4.968;2023-05-15T12:25:46;18.02;;;15.80;;
9860;SDS011;4969;52.304;4.968;2023-05-15T12:28:18;16.98;;;15.07;;
9860;SDS011;4969;52.304;4.968;2023-05-15T12:30:44;23.08;;;17.15;;
9860;SDS011;4969;52.304;4.968;2023-05-15T12:33:11;15.95;;;14.35;;
9860;SDS011;4969;52.304;4.968;2023-05-15T12:35:40;16.77;;;15.07;;
9860;SDS011;4969;52.304;4.968;2023-05-15T12:38:07;18.15;;;15.45;;
9860;SDS011;4969;52.304;4.968;2023-05-15T12:40:35;21.20;;;15.13;;
9860;SDS011;4969;52.304;4.968;2023-05-15T12:43:03;16.55;;;14.73;;
9860;SDS011;4969;52.304;4.968;2023-05-15T12:45:33;14.73;;;13.10;;
9860;SDS011;4969;52.304;4.968;2023-05-15T12:48:02;17.42;;;13.07;;
9860;SDS011;4969;52.304;4.968;2023-05-15T12:50:30;19.83;;;15.77;;
9860;SDS011;4969;52.304;4.968;2023-05-15T12:52:59;9.77;;;8.90;;
9860;SDS011;4969;52.304;4.968;2023-05-15T12:55:27;9.73;;;8.73;;
9860;SDS011;4969;52.304;4.968;2023-05-15T12:57:56;9.63;;;8.73;;
9860;SDS011;4969;52.304;4.968;2023-05-15T13:00:24;8.35;;;6.88;;
9860;SDS011;4969;52.304;4.968;2023-05-15T13:02:55;6.63;;;6.03;;
9860;SDS011;4969;52.304;4.968;2023-05-15T13:05:23;8.00;;;6.07;;
9860;SDS011;4969;52.304;4.968;2023-05-15T13:07:50;8.20;;;7.40;;
9860;SDS011;4969;52.304;4.968;2023-05-15T13:10:19;11.10;;;8.15;;
9860;SDS011;4969;52.304;4.968;2023-05-15T13:12:46;12.05;;;9.07;;
9860;SDS011;4969;52.304;4.968;2023-05-15T13:15:23;11.18;;;9.68;;
9860;SDS011;4969;52.304;4.968;2023-05-15T13:17:51;10.55;;;9.55;;
9860;SDS011;4969;52.304;4.968;2023-05-15T13:20:22;10.43;;;9.25;;
9860;SDS011;4969;52.304;4.968;2023-05-15T13:22:49;9.95;;;6.55;;
9860;SDS011;4969;52.304;4.968;2023-05-15T13:25:16;8.10;;;6.35;;
9860;SDS011;4969;52.304;4.968;2023-05-15T13:27:43;6.15;;;5.55;;
9860;SDS011;4969;52.304;4.968;2023-05-15T13:30:11;9.10;;;6.10;;
9860;SDS011;4969;52.304;4.968;2023-05-15T13:32:38;7.35;;;6.65;;
9860;SDS011;4969;52.304;4.968;2023-05-15T13:35:05;11.32;;;7.40;;
9860;SDS011;4969;52.304;4.968;2023-05-15T13:37:33;10.15;;;8.20;;
9860;SDS011;4969;52.304;4.968;2023-05-15T13:40:00;10.20;;;8.98;;
9860;SDS011;4969;52.304;4.968;2023-05-15T13:42:30;14.10;;;8.35;;
9860;SDS011;4969;52.304;4.968;2023-05-15T13:44:57;11.75;;;8.50;;
9860;SDS011;4969;52.304;4.968;2023-05-15T13:47:23;10.02;;;7.50;;
9860;SDS011;4969;52.304;4.968;2023-05-15T13:49:50;9.85;;;7.28;;
9860;SDS011;4969;52.304;4.968;2023-05-15T13:52:17;9.50;;;7.28;;
9860;SDS011;4969;52.304;4.968;2023-05-15T13:54:45;9.40;;;7.25;;
9860;SDS011;4969;52.304;4.968;2023-05-15T13:57:11;8.70;;;7.47;;
9860;SDS011;4969;52.304;4.968;2023-05-15T13:59:38;9.25;;;7.00;;
9860;SDS011;4969;52.304;4.968;2023-05-15T14:02:05;9.18;;;6.75;;
9860;SDS011;4969;52.304;4.968;2023-05-15T14:04:31;11.00;;;7.50;;
9860;SDS011;4969;52.304;4.968;2023-05-15T14:06:58;10.07;;;7.20;;
9860;SDS011;4969;52.304;4.968;2023-05-15T14:09:25;8.70;;;7.30;;
9860;SDS011;4969;52.304;4.968;2023-05-15T14:11:53;8.00;;;6.55;;
9860;SDS011;4969;52.304;4.968;2023-05-15T14:14:19;10.15;;;7.60;;
9860;SDS011;4969;52.304;4.968;2023-05-15T14:16:46;9.55;;;6.35;;
9860;SDS011;4969;52.304;4.968;2023-05-15T14:19:13;7.03;;;6.30;;
9860;SDS011;4969;52.304;4.968;2023-05-15T14:21:39;10.23;;;6.55;;
9860;SDS011;4969;52.304;4.968;2023-05-15T14:24:06;8.30;;;6.37;;
9860;SDS011;4969;52.304;4.968;2023-05-15T14:26:33;9.77;;;6.68;;
9860;SDS011;4969;52.304;4.968;2023-05-15T14:29:01;7.97;;;7.18;;
9860;SDS011;4969;52.304;4.968;2023-05-15T14:31:28;8.55;;;5.90;;
9860;SDS011;4969;52.304;4.968;2023-05-15T14:33:54;7.45;;;6.50;;
9860;SDS011;4969;52.304;4.968;2023-05-15T14:36:21;8.60;;;5.93;;
9860;SDS011;4969;52.304;4.968;2023-05-15T14:38:47;7.15;;;6.05;;
9860;SDS011;4969;52.304;4.968;2023-05-15T14:41:14;8.55;;;7.50;;
9860;SDS011;4969;52.304;4.968;2023-05-15T14:43:40;8.60;;;7.72;;
9860;SDS011;4969;52.304;4.968;2023-05-15T14:46:08;8.60;;;7.45;;
9860;SDS011;4969;52.304;4.968;2023-05-15T14:48:35;8.60;;;7.80;;
9860;SDS011;4969;52.304;4.968;2023-05-15T14:51:01;9.52;;;7.82;;
9860;SDS011;4969;52.304;4.968;2023-05-15T14:53:28;10.15;;;7.85;;
9860;SDS011;4969;52.304;4.968;2023-05-15T14:55:54;8.50;;;7.43;;